Time;durP1;ratioP1;P1;durP2;ratioP2;P2;SDS_P1;SDS_P2;PMS_P1;PMS_P2;Temp;Humidity;BMP_temperature;BMP_pressure;BME280_temperature;BME280_humidity;BME280_pressure;Samples;Min_cycle;Max_cycle;Signal;HPM_P1;HPM_P2
2023/08/30 00:02:02;;;;;;;;;;;14.60;99.90;;;;;;5070384;28;20422;-40
2023/08/30 00:04:28;;;;;;;;;;;14.60;99.90;;;;;;5071734;28;19931;-40
2023/08/30 00:06:55;;;;;;;;;;;14.60;99.90;;;;;;5071543;28;19979;-40
2023/08/30 00:09:22;;;;;;;;;;;14.50;99.90;;;;;;5071797;28;19985;-39
2023/08/30 00:11:48;;;;;;;;;;;14.50;99.90;;;;;;5071888;28;19947;-40
2023/08/30 00:14:15;;;;;;;;;;;14.50;99.90;;;;;;5067737;28;19924;-40
2023/08/30 00:16:43;;;;;;;;;;;14.50;99.90;;;;;;5072754;28;19985;-40
2023/08/30 00:19:10;;;;;;;;;;;14.50;99.90;;;;;;5074319;28;19985;-40
2023/08/30 00:21:37;;;;;;;;;;;14.50;99.90;;;;;;5075182;28;19928;-40
2023/08/30 00:24:04;;;;;;;;;;;14.50;99.90;;;;;;5074629;28;19924;-40
2023/08/30 00:26:31;;;;;;;;;;;14.40;99.90;;;;;;5074200;28;19924;-40
2023/08/30 00:28:57;;;;;;;;;;;14.40;99.90;;;;;;5074513;28;20021;-40
2023/08/30 00:31:24;;;;;;;;;;;14.40;99.90;;;;;;5074034;28;20395;-40
2023/08/30 00:33:52;;;;;;;;;;;14.40;99.90;;;;;;5074049;28;19924;-40
2023/08/30 00:36:19;;;;;;;;;;;14.40;99.90;;;;;;5055112;28;19940;-40
2023/08/30 00:38:46;;;;;;;;;;;14.40;99.90;;;;;;5067661;28;19928;-40
2023/08/30 00:41:12;;;;;;;;;;;14.30;99.90;;;;;;5074737;28;20445;-40
2023/08/30 00:43:39;;;;;;;;;;;14.30;99.90;;;;;;5072755;28;19932;-40
2023/08/30 00:46:06;;;;;;;;;;;14.30;99.90;;;;;;5055586;28;19996;-40
2023/08/30 00:48:33;;;;;;;;;;;14.30;99.90;;;;;;5054857;28;19925;-40
2023/08/30 00:51:01;;;;;;;;;;;14.20;99.90;;;;;;5054733;28;20019;-40
2023/08/30 00:53:28;;;;;;;;;;;14.30;99.90;;;;;;5054576;28;19925;-40
2023/08/30 00:55:54;;;;;;;;;;;14.20;99.90;;;;;;5065020;28;19928;-40
2023/08/30 00:58:21;;;;;;;;;;;14.20;99.90;;;;;;5054859;28;19925;-38
2023/08/30 01:00:48;;;;;;;;;;;14.20;99.90;;;;;;5054865;28;19925;-40
2023/08/30 01:03:14;;;;;;;;;;;14.20;99.90;;;;;;5073007;28;19935;-40
2023/08/30 01:05:41;;;;;;;;;;;14.20;99.90;;;;;;5074371;28;19928;-40
2023/08/30 01:08:11;;;;;;;;;;;14.20;99.90;;;;;;5074392;28;20429;-40
2023/08/30 01:10:45;;;;;;;;;;;14.20;99.90;;;;;;5074092;28;20410;-40
2023/08/30 01:13:13;;;;;;;;;;;14.20;99.90;;;;;;5074719;28;19925;-40
2023/08/30 01:15:40;;;;;;;;;;;14.20;99.90;;;;;;5072482;28;20027;-40
2023/08/30 01:18:07;;;;;;;;;;;14.20;99.90;;;;;;5072023;28;19924;-39
2023/08/30 01:20:35;;;;;;;;;;;14.20;99.90;;;;;;5067084;28;19932;-40
2023/08/30 01:23:02;;;;;;;;;;;14.20;99.90;;;;;;5052577;28;19924;-40
2023/08/30 01:25:33;;;;;;;;;;;14.20;99.90;;;;;;5068995;28;20379;-40
2023/08/30 01:28:01;;;;;;;;;;;14.20;99.90;;;;;;5073316;28;20302;-40
2023/08/30 01:30:27;;;;;;;;;;;14.20;99.90;;;;;;5072749;28;19970;-40
2023/08/30 01:32:55;;;;;;;;;;;14.10;99.90;;;;;;5058741;28;20428;-40
2023/08/30 01:35:22;;;;;;;;;;;14.10;99.90;;;;;;5054135;28;20312;-40
2023/08/30 01:37:49;;;;;;;;;;;14.10;99.90;;;;;;5053871;28;19936;-39
2023/08/30 01:40:16;;;;;;;;;;;14.10;99.90;;;;;;5061606;28;19925;-40
2023/08/30 01:42:44;;;;;;;;;;;14.10;99.90;;;;;;5053912;28;19925;-40
2023/08/30 01:45:13;;;;;;;;;;;14.00;99.90;;;;;;5066485;28;20296;-40
2023/08/30 01:47:40;;;;;;;;;;;14.10;99.90;;;;;;5072737;28;20368;-39
2023/08/30 01:50:07;;;;;;;;;;;14.10;99.90;;;;;;5073751;28;19980;-40
2023/08/30 01:52:34;;;;;;;;;;;14.10;99.90;;;;;;5073902;28;19954;-40
2023/08/30 01:55:00;;;;;;;;;;;14.10;99.90;;;;;;5071612;28;19931;-40
2023/08/30 01:57:27;;;;;;;;;;;14.10;99.90;;;;;;5067587;28;19929;-40
2023/08/30 01:59:54;;;;;;;;;;;14.10;99.90;;;;;;5053541;28;19971;-40
2023/08/30 02:02:22;;;;;;;;;;;14.00;99.90;;;;;;5053620;28;19931;-40
2023/08/30 02:04:49;;;;;;;;;;;14.00;99.90;;;;;;5062479;28;19925;-40
2023/08/30 02:07:17;;;;;;;;;;;14.00;99.90;;;;;;5071411;28;19951;-40
2023/08/30 02:09:46;;;;;;;;;;;13.90;99.90;;;;;;5072021;28;19931;-39
2023/08/30 02:12:14;;;;;;;;;;;13.90;99.90;;;;;;5072446;28;19970;-40
2023/08/30 02:14:40;;;;;;;;;;;13.90;99.90;;;;;;5071894;28;19924;-40
2023/08/30 02:17:07;;;;;;;;;;;13.80;99.90;;;;;;5073157;28;19970;-40
2023/08/30 02:19:35;;;;;;;;;;;13.80;99.90;;;;;;5072779;28;19928;-40
2023/08/30 02:22:03;;;;;;;;;;;13.80;99.90;;;;;;5072287;28;19929;-40
2023/08/30 02:24:29;;;;;;;;;;;13.70;99.90;;;;;;5072067;28;19932;-40
2023/08/30 02:26:56;;;;;;;;;;;13.70;99.90;;;;;;5072167;28;19952;-40
2023/08/30 02:29:23;;;;;;;;;;;13.70;99.90;;;;;;5072864;28;20277;-40
2023/08/30 02:31:49;;;;;;;;;;;13.70;99.90;;;;;;5072972;28;19929;-40
2023/08/30 02:34:16;;;;;;;;;;;13.70;99.90;;;;;;5072931;28;19958;-40
2023/08/30 02:36:44;;;;;;;;;;;13.80;99.90;;;;;;5072493;28;20376;-40
2023/08/30 02:39:11;;;;;;;;;;;13.70;99.90;;;;;;5072815;28;19925;-40
2023/08/30 02:41:40;;;;;;;;;;;13.70;99.90;;;;;;5072974;28;19928;-40
2023/08/30 02:44:08;;;;;;;;;;;13.70;99.90;;;;;;5070728;28;19936;-40
2023/08/30 02:46:37;;;;;;;;;;;13.70;99.90;;;;;;5072743;28;19924;-40
2023/08/30 02:49:04;;;;;;;;;;;13.70;99.90;;;;;;5066646;28;19933;-40
2023/08/30 02:51:30;;;;;;;;;;;13.70;99.90;;;;;;5051985;28;19929;-40
2023/08/30 02:53:58;;;;;;;;;;;13.70;99.90;;;;;;5052580;28;19925;-40
2023/08/30 02:56:26;;;;;;;;;;;13.70;99.90;;;;;;5068222;28;19925;-40
2023/08/30 02:58:52;;;;;;;;;;;13.70;99.90;;;;;;5072370;28;20350;-40
2023/08/30 03:01:19;;;;;;;;;;;13.70;99.90;;;;;;5071371;28;20380;-40
2023/08/30 03:03:46;;;;;;;;;;;13.70;99.90;;;;;;5072179;28;19928;-40
2023/08/30 03:06:13;;;;;;;;;;;13.70;99.90;;;;;;5071242;28;19931;-40
2023/08/30 03:08:40;;;;;;;;;;;13.60;99.90;;;;;;5072624;28;19974;-40
2023/08/30 03:11:12;;;;;;;;;;;13.60;99.90;;;;;;5071418;28;19928;-40
2023/08/30 03:13:38;;;;;;;;;;;13.60;99.90;;;;;;5054616;28;19990;-40
2023/08/30 03:16:11;;;;;;;;;;;13.50;99.90;;;;;;5072255;28;19931;-40
2023/08/30 03:18:37;;;;;;;;;;;13.50;99.90;;;;;;5072418;28;20371;-40
2023/08/30 03:21:04;;;;;;;;;;;13.40;99.90;;;;;;5072496;28;19924;-40
2023/08/30 03:23:31;;;;;;;;;;;13.40;99.90;;;;;;5072161;28;19925;-40
2023/08/30 03:25:58;;;;;;;;;;;13.40;99.90;;;;;;5072345;28;19939;-40
2023/08/30 03:28:27;;;;;;;;;;;13.40;99.90;;;;;;5071387;28;20334;-40
2023/08/30 03:30:53;;;;;;;;;;;13.30;99.90;;;;;;5062575;28;19928;-40
2023/08/30 03:33:20;;;;;;;;;;;13.30;99.90;;;;;;5063728;28;20693;-40
2023/08/30 03:35:47;;;;;;;;;;;13.30;99.90;;;;;;5053637;28;19931;-40
2023/08/30 03:38:14;;;;;;;;;;;13.30;99.90;;;;;;5064096;28;19925;-40
2023/08/30 03:40:40;;;;;;;;;;;13.30;99.90;;;;;;5065292;28;20293;-40
2023/08/30 03:43:07;;;;;;;;;;;13.20;99.90;;;;;;5067120;28;19931;-40
2023/08/30 03:45:36;;;;;;;;;;;13.20;99.90;;;;;;5070487;28;19929;-40
2023/08/30 03:48:03;;;;;;;;;;;13.20;99.90;;;;;;5071385;28;20027;-40
2023/08/30 03:50:30;;;;;;;;;;;13.20;99.90;;;;;;5072097;28;19924;-40
2023/08/30 03:52:57;;;;;;;;;;;13.20;99.90;;;;;;5074616;28;19928;-40
2023/08/30 03:55:23;;;;;;;;;;;13.20;99.90;;;;;;5074767;28;20311;-40
2023/08/30 03:57:50;;;;;;;;;;;13.10;99.90;;;;;;5074713;28;19951;-40
2023/08/30 04:00:17;;;;;;;;;;;13.20;99.90;;;;;;5073647;28;19976;-40
2023/08/30 04:02:45;;;;;;;;;;;13.20;99.90;;;;;;5073907;28;20342;-40
2023/08/30 04:05:12;;;;;;;;;;;13.20;99.90;;;;;;5071095;28;19928;-40
2023/08/30 04:07:38;;;;;;;;;;;13.20;99.90;;;;;;5074682;28;20289;-40
2023/08/30 04:10:07;;;;;;;;;;;13.20;99.90;;;;;;5074436;28;19924;-40
2023/08/30 04:12:34;;;;;;;;;;;13.20;99.90;;;;;;5073669;28;20300;-40
2023/08/30 04:15:00;;;;;;;;;;;13.20;99.90;;;;;;5074460;28;19924;-41
2023/08/30 04:17:27;;;;;;;;;;;13.20;99.90;;;;;;5073926;28;20410;-41
2023/08/30 04:19:55;;;;;;;;;;;13.20;99.90;;;;;;5074260;28;19989;-41
2023/08/30 04:22:22;;;;;;;;;;;13.20;99.90;;;;;;5075085;28;19925;-41
2023/08/30 04:24:49;;;;;;;;;;;13.20;99.90;;;;;;5074761;28;20277;-41
2023/08/30 04:27:16;;;;;;;;;;;13.20;99.90;;;;;;5074245;28;19929;-41
2023/08/30 04:29:44;;;;;;;;;;;13.20;99.90;;;;;;5074522;28;19925;-41
2023/08/30 04:32:11;;;;;;;;;;;13.10;99.90;;;;;;5074375;28;19978;-41
2023/08/30 04:34:38;;;;;;;;;;;13.20;99.90;;;;;;5075391;28;19928;-41
2023/08/30 04:37:06;;;;;;;;;;;13.10;99.90;;;;;;5075173;28;19924;-41
2023/08/30 04:39:33;;;;;;;;;;;13.10;99.90;;;;;;5073912;28;19924;-41
2023/08/30 04:42:00;;;;;;;;;;;13.10;99.90;;;;;;5075024;28;20338;-41
2023/08/30 04:44:27;;;;;;;;;;;13.10;99.90;;;;;;5073904;28;19970;-41
2023/08/30 04:46:54;;;;;;;;;;;13.20;99.90;;;;;;5072939;28;19925;-41
2023/08/30 04:49:21;;;;;;;;;;;13.20;99.90;;;;;;5073486;28;19994;-41
2023/08/30 04:51:48;;;;;;;;;;;13.20;99.90;;;;;;5075108;28;19924;-41
2023/08/30 04:54:16;;;;;;;;;;;13.10;99.90;;;;;;5074841;28;19929;-41
2023/08/30 04:56:43;;;;;;;;;;;13.20;99.90;;;;;;5073402;28;19974;-41
2023/08/30 04:59:09;;;;;;;;;;;13.20;99.90;;;;;;5074591;28;19932;-41
2023/08/30 05:01:37;;;;;;;;;;;13.20;99.90;;;;;;5064956;28;19932;-41
2023/08/30 05:04:05;;;;;;;;;;;13.20;99.90;;;;;;5069450;28;19932;-41
2023/08/30 05:06:32;;;;;;;;;;;13.20;99.90;;;;;;5074447;28;19924;-41
2023/08/30 05:08:59;;;;;;;;;;;13.20;99.90;;;;;;5063511;28;19936;-41
2023/08/30 05:11:27;;;;;;;;;;;13.20;99.90;;;;;;5054961;28;20189;-41
2023/08/30 05:13:53;;;;;;;;;;;13.30;99.90;;;;;;5073819;28;19970;-41
2023/08/30 05:16:20;;;;;;;;;;;13.30;99.90;;;;;;5073678;28;19940;-41
2023/08/30 05:18:47;;;;;;;;;;;13.30;99.90;;;;;;5074648;28;19924;-41
2023/08/30 05:21:14;;;;;;;;;;;13.30;99.90;;;;;;5073009;28;20394;-41
2023/08/30 05:23:41;;;;;;;;;;;13.30;99.90;;;;;;5073384;28;19974;-41
2023/08/30 05:26:08;;;;;;;;;;;13.30;99.90;;;;;;5074251;28;20086;-41
2023/08/30 05:28:36;;;;;;;;;;;13.30;99.90;;;;;;5072149;28;20475;-41
2023/08/30 05:31:03;;;;;;;;;;;13.30;99.90;;;;;;5073310;28;19950;-41
2023/08/30 05:33:30;;;;;;;;;;;13.30;99.90;;;;;;5073084;28;19925;-41
2023/08/30 05:35:56;;;;;;;;;;;13.30;99.90;;;;;;5074467;28;19970;-41
2023/08/30 05:38:23;;;;;;;;;;;13.40;99.90;;;;;;5074077;28;19928;-41
2023/08/30 05:40:49;;;;;;;;;;;13.40;99.90;;;;;;5072771;28;19989;-41
2023/08/30 05:43:18;;;;;;;;;;;13.40;99.90;;;;;;5071635;28;19978;-41
2023/08/30 05:45:45;;;;;;;;;;;13.40;99.90;;;;;;5073462;28;19924;-41
2023/08/30 05:48:12;;;;;;;;;;;13.40;99.90;;;;;;5073825;28;19970;-41
2023/08/30 05:50:40;;;;;;;;;;;13.40;99.90;;;;;;5072981;28;19929;-41
2023/08/30 05:53:07;;;;;;;;;;;13.40;99.90;;;;;;5073637;28;20019;-41
2023/08/30 05:55:33;;;;;;;;;;;13.40;99.90;;;;;;5073134;28;19924;-41
2023/08/30 05:58:00;;;;;;;;;;;13.50;99.90;;;;;;5072489;28;19924;-41
2023/08/30 06:00:27;;;;;;;;;;;13.50;99.90;;;;;;5072418;28;19924;-41
2023/08/30 06:02:55;;;;;;;;;;;13.50;99.90;;;;;;5073337;28;19978;-41
2023/08/30 06:05:21;;;;;;;;;;;13.50;99.90;;;;;;5072246;28;20418;-41
2023/08/30 06:07:48;;;;;;;;;;;13.50;99.90;;;;;;5073285;28;20326;-41
2023/08/30 06:10:15;;;;;;;;;;;13.50;99.90;;;;;;5072674;28;19928;-41
2023/08/30 06:12:41;;;;;;;;;;;13.50;99.90;;;;;;5071094;28;19970;-41
2023/08/30 06:15:08;;;;;;;;;;;13.60;99.90;;;;;;5072999;28;19974;-41
2023/08/30 06:17:35;;;;;;;;;;;13.60;99.90;;;;;;5065626;28;20339;-41
2023/08/30 06:20:04;;;;;;;;;;;13.60;99.90;;;;;;5069415;28;19978;-40
2023/08/30 06:22:31;;;;;;;;;;;13.60;99.90;;;;;;5073123;28;19929;-41
2023/08/30 06:24:58;;;;;;;;;;;13.70;99.90;;;;;;5072048;28;20387;-41
2023/08/30 06:27:24;;;;;;;;;;;13.70;99.90;;;;;;5069062;28;19925;-41
2023/08/30 06:29:51;;;;;;;;;;;13.70;99.90;;;;;;5072073;28;19936;-41
2023/08/30 06:32:18;;;;;;;;;;;13.80;99.90;;;;;;5072364;28;19978;-41
2023/08/30 06:34:44;;;;;;;;;;;13.80;99.90;;;;;;5072094;28;19924;-41
2023/08/30 06:37:12;;;;;;;;;;;13.80;99.90;;;;;;5072867;28;19924;-41
2023/08/30 06:39:39;;;;;;;;;;;13.90;99.90;;;;;;5071845;28;19932;-41
2023/08/30 06:42:06;;;;;;;;;;;14.00;99.90;;;;;;5071977;28;19928;-41
2023/08/30 06:44:33;;;;;;;;;;;14.10;99.90;;;;;;5072783;28;19932;-41
2023/08/30 06:46:59;;;;;;;;;;;14.10;99.90;;;;;;5070447;28;19981;-41
2023/08/30 06:49:26;;;;;;;;;;;14.10;99.90;;;;;;5071478;28;19924;-41
2023/08/30 06:51:53;;;;;;;;;;;14.10;99.90;;;;;;5071589;28;19939;-41
2023/08/30 06:54:21;;;;;;;;;;;14.10;99.90;;;;;;5071841;28;19924;-41
2023/08/30 06:56:57;;;;;;;;;;;14.20;99.90;;;;;;5070970;28;19924;-41
2023/08/30 06:59:24;;;;;;;;;;;14.20;99.90;;;;;;5071406;28;20288;-41
2023/08/30 07:01:50;;;;;;;;;;;14.20;99.90;;;;;;5071569;28;20484;-41
2023/08/30 07:04:17;;;;;;;;;;;14.30;99.90;;;;;;5072276;28;19924;-41
2023/08/30 07:06:44;;;;;;;;;;;14.30;99.90;;;;;;5066513;28;20292;-41
2023/08/30 07:09:11;;;;;;;;;;;14.30;99.90;;;;;;5070636;28;19935;-41
2023/08/30 07:11:39;;;;;;;;;;;14.30;99.90;;;;;;5071272;28;19924;-41
2023/08/30 07:14:06;;;;;;;;;;;14.40;99.90;;;;;;5071550;28;19925;-41
2023/08/30 07:16:33;;;;;;;;;;;14.40;99.90;;;;;;5071665;28;19956;-41
2023/08/30 07:19:01;;;;;;;;;;;14.40;99.90;;;;;;5069804;28;20290;-41
2023/08/30 07:21:28;;;;;;;;;;;14.40;99.90;;;;;;5063339;28;19930;-41
2023/08/30 07:23:54;;;;;;;;;;;14.50;99.90;;;;;;5055525;28;20404;-41
2023/08/30 07:26:21;;;;;;;;;;;14.60;99.90;;;;;;5069252;28;19924;-41
2023/08/30 07:28:49;;;;;;;;;;;14.60;99.90;;;;;;5076516;28;19978;-41
2023/08/30 07:31:18;;;;;;;;;;;14.70;99.90;;;;;;5075352;28;19925;-41
2023/08/30 07:33:45;;;;;;;;;;;14.80;99.90;;;;;;5070558;28;20002;-41
2023/08/30 07:36:12;;;;;;;;;;;14.90;99.90;;;;;;5073976;28;19925;-41
2023/08/30 07:38:38;;;;;;;;;;;15.00;99.90;;;;;;5074497;28;19925;-41
2023/08/30 07:41:05;;;;;;;;;;;15.10;99.90;;;;;;5073050;28;19924;-41
2023/08/30 07:43:32;;;;;;;;;;;15.20;99.90;;;;;;5072557;28;19931;-41
2023/08/30 07:46:00;;;;;;;;;;;15.40;99.90;;;;;;5065418;28;20339;-41
2023/08/30 07:48:26;;;;;;;;;;;15.50;99.90;;;;;;5063060;28;20403;-41
2023/08/30 07:50:53;;;;;;;;;;;15.70;99.90;;;;;;5075987;28;19931;-41
2023/08/30 07:53:20;;;;;;;;;;;15.90;99.90;;;;;;5075923;28;19929;-41
2023/08/30 07:55:48;;;;;;;;;;;16.00;99.90;;;;;;5075095;28;19986;-41
2023/08/30 07:58:15;;;;;;;;;;;16.10;99.90;;;;;;5076166;28;19932;-41
2023/08/30 08:00:42;;;;;;;;;;;16.20;99.90;;;;;;5075759;28;20395;-41
2023/08/30 08:03:10;;;;;;;;;;;16.30;99.90;;;;;;5074528;28;19968;-41
2023/08/30 08:05:37;;;;;;;;;;;16.30;99.90;;;;;;5074398;28;20280;-41
2023/08/30 08:08:04;;;;;;;;;;;16.40;99.90;;;;;;5061464;28;19936;-41
2023/08/30 08:10:32;;;;;;;;;;;16.40;99.90;;;;;;5071887;28;20392;-41
2023/08/30 08:12:59;;;;;;;;;;;16.40;99.90;;;;;;5074754;28;20399;-41
2023/08/30 08:15:25;;;;;;;;;;;16.40;99.90;;;;;;5075440;28;19924;-41
2023/08/30 08:17:52;;;;;;;;;;;16.40;99.90;;;;;;5073170;28;19936;-41
2023/08/30 08:20:20;;;;;;;;;;;16.40;99.90;;;;;;5074451;28;19924;-40
2023/08/30 08:22:47;;;;;;;;;;;16.30;99.90;;;;;;5074780;28;19936;-41
2023/08/30 08:25:14;;;;;;;;;;;16.40;99.90;;;;;;5054379;28;19947;-41
2023/08/30 08:27:41;;;;;;;;;;;16.40;99.90;;;;;;5055371;28;20302;-41
2023/08/30 08:30:09;;;;;;;;;;;16.40;99.90;;;;;;5070472;28;19924;-41
2023/08/30 08:32:36;;;;;;;;;;;16.50;99.90;;;;;;5074330;28;19931;-41
2023/08/30 08:35:02;;;;;;;;;;;16.50;99.90;;;;;;5074349;28;20296;-41
2023/08/30 08:37:30;;;;;;;;;;;16.50;99.90;;;;;;5074063;28;19939;-41
2023/08/30 08:39:57;;;;;;;;;;;16.50;99.90;;;;;;5072746;28;19925;-41
2023/08/30 08:42:24;;;;;;;;;;;16.50;99.90;;;;;;5075170;28;20009;-41
2023/08/30 08:44:51;;;;;;;;;;;16.50;99.90;;;;;;5074095;28;19929;-41
2023/08/30 08:47:18;;;;;;;;;;;16.50;99.90;;;;;;5062919;28;19950;-41
2023/08/30 08:49:45;;;;;;;;;;;16.50;99.90;;;;;;5061595;28;19924;-41
2023/08/30 08:52:11;;;;;;;;;;;16.50;99.90;;;;;;5073417;28;19928;-41
2023/08/30 08:54:40;;;;;;;;;;;16.50;99.90;;;;;;5073482;28;19982;-41
2023/08/30 08:57:07;;;;;;;;;;;16.50;99.90;;;;;;5074101;28;19932;-41
2023/08/30 08:59:33;;;;;;;;;;;16.50;99.90;;;;;;5073653;28;19932;-41
2023/08/30 09:02:00;;;;;;;;;;;16.50;99.90;;;;;;5072883;28;19924;-41
2023/08/30 09:04:27;;;;;;;;;;;16.50;99.90;;;;;;5074744;28;20354;-41
2023/08/30 09:06:53;;;;;;;;;;;16.50;99.90;;;;;;5073072;28;20436;-41
2023/08/30 09:09:20;;;;;;;;;;;16.50;99.90;;;;;;5071597;28;19928;-41
2023/08/30 09:11:48;;;;;;;;;;;16.40;99.90;;;;;;5063079;28;19925;-41
2023/08/30 09:14:15;;;;;;;;;;;16.40;99.90;;;;;;5057647;28;20332;-41
2023/08/30 09:16:42;;;;;;;;;;;16.40;99.90;;;;;;5054380;28;19932;-41
2023/08/30 09:19:10;;;;;;;;;;;16.40;99.90;;;;;;5059163;28;19924;-41
2023/08/30 09:21:37;;;;;;;;;;;16.30;99.90;;;;;;5074380;28;19925;-41
2023/08/30 09:24:04;;;;;;;;;;;16.30;99.90;;;;;;5074584;28;20316;-41
2023/08/30 09:26:31;;;;;;;;;;;16.20;99.90;;;;;;5073557;28;19924;-41
2023/08/30 09:29:03;;;;;;;;;;;16.10;99.90;;;;;;5071145;28;19928;-40
2023/08/30 09:31:33;;;;;;;;;;;16.10;99.90;;;;;;5061885;28;19979;-40
2023/08/30 09:34:01;;;;;;;;;;;16.10;99.90;;;;;;5054134;28;20377;-40
2023/08/30 09:36:28;;;;;;;;;;;16.10;99.90;;;;;;5053010;28;20042;-41
2023/08/30 09:38:57;;;;;;;;;;;16.00;99.90;;;;;;5052260;28;19931;-41
2023/08/30 09:41:25;;;;;;;;;;;16.00;99.90;;;;;;5053278;28;19928;-40
2023/08/30 09:43:52;;;;;;;;;;;16.00;99.90;;;;;;5069609;28;19958;-41
2023/08/30 09:46:20;;;;;;;;;;;16.00;99.90;;;;;;5072224;28;19974;-41
2023/08/30 09:48:47;;;;;;;;;;;16.00;99.90;;;;;;5072016;28;19925;-40
2023/08/30 09:51:14;;;;;;;;;;;16.00;99.90;;;;;;5071695;28;19932;-40
2023/08/30 09:53:44;;;;;;;;;;;16.00;99.90;;;;;;5069404;28;19928;-40
2023/08/30 09:56:12;;;;;;;;;;;16.00;99.90;;;;;;5063410;28;20331;-41
2023/08/30 09:58:39;;;;;;;;;;;16.00;99.90;;;;;;5056814;28;19987;-41
2023/08/30 10:01:06;;;;;;;;;;;16.00;99.90;;;;;;5073402;28;19924;-41
2023/08/30 10:03:34;;;;;;;;;;;16.10;99.90;;;;;;5072560;28;20027;-41
2023/08/30 10:06:04;;;;;;;;;;;16.20;99.90;;;;;;5072585;28;19928;-40
2023/08/30 10:08:31;;;;;;;;;;;16.20;99.90;;;;;;5073693;28;19935;-41
2023/08/30 10:10:57;;;;;;;;;;;16.20;99.90;;;;;;5071695;28;20031;-40
2023/08/30 10:13:24;;;;;;;;;;;16.30;99.90;;;;;;5072841;28;20277;-40
2023/08/30 10:15:51;;;;;;;;;;;16.30;99.90;;;;;;5071096;28;19931;-39
2023/08/30 10:18:21;;;;;;;;;;;16.40;99.90;;;;;;5071567;28;19925;-40
2023/08/30 10:20:49;;;;;;;;;;;16.50;99.90;;;;;;5073095;28;20049;-40
2023/08/30 10:23:16;;;;;;;;;;;16.50;99.90;;;;;;5072934;28;20424;-40
2023/08/30 10:25:43;;;;;;;;;;;16.60;99.90;;;;;;5073188;28;19928;-41
2023/08/30 10:28:09;;;;;;;;;;;16.60;99.90;;;;;;5070436;28;20296;-40
2023/08/30 10:30:36;;;;;;;;;;;16.60;99.90;;;;;;5071739;28;19994;-40
2023/08/30 10:33:03;;;;;;;;;;;16.60;99.90;;;;;;5069782;28;20448;-40
2023/08/30 10:35:30;;;;;;;;;;;16.60;99.90;;;;;;5068984;28;20070;-40
2023/08/30 10:38:01;;;;;;;;;;;16.60;99.90;;;;;;5071021;28;21487;-40
2023/08/30 10:40:27;;;;;;;;;;;16.60;99.90;;;;;;5073051;28;19931;-40
2023/08/30 10:43:01;;;;;;;;;;;16.60;99.90;;;;;;5071120;28;19974;-40
2023/08/30 10:45:27;;;;;;;;;;;16.50;99.90;;;;;;5072824;28;19978;-40
2023/08/30 10:47:55;;;;;;;;;;;16.50;99.90;;;;;;5072578;28;19925;-40
2023/08/30 10:50:28;;;;;;;;;;;16.50;99.90;;;;;;5072663;28;19947;-45
2023/08/30 10:52:55;;;;;;;;;;;16.50;99.90;;;;;;5072830;28;20343;-40
2023/08/30 10:55:23;;;;;;;;;;;16.50;99.90;;;;;;5071697;28;20392;-40
2023/08/30 10:57:58;;;;;;;;;;;16.40;99.90;;;;;;5071943;28;19932;-40
2023/08/30 11:00:25;;;;;;;;;;;16.40;99.90;;;;;;5071453;28;19970;-40
2023/08/30 11:02:52;;;;;;;;;;;16.40;99.90;;;;;;5072844;28;19928;-40
2023/08/30 11:05:19;;;;;;;;;;;16.40;99.90;;;;;;5071873;28;20645;-40
2023/08/30 11:07:46;;;;;;;;;;;16.40;99.90;;;;;;5069617;28;19924;-39
2023/08/30 11:10:13;;;;;;;;;;;16.30;99.90;;;;;;5071946;28;19932;-40
2023/08/30 11:12:42;;;;;;;;;;;16.30;99.90;;;;;;5072535;28;19933;-40
2023/08/30 11:15:09;;;;;;;;;;;16.30;99.90;;;;;;5069975;28;19925;-40
2023/08/30 11:17:36;;;;;;;;;;;16.10;99.90;;;;;;5072577;28;20410;-40
2023/08/30 11:20:06;;;;;;;;;;;16.10;99.90;;;;;;5066871;28;19929;-40
2023/08/30 11:22:33;;;;;;;;;;;16.10;99.90;;;;;;5058641;28;19928;-40
2023/08/30 11:24:59;;;;;;;;;;;16.00;99.90;;;;;;5071171;28;19928;-40
2023/08/30 11:27:26;;;;;;;;;;;16.10;99.90;;;;;;5072261;28;19924;-39
2023/08/30 11:29:54;;;;;;;;;;;16.00;99.90;;;;;;5064979;28;19993;-39
2023/08/30 11:32:21;;;;;;;;;;;16.00;99.90;;;;;;5071646;28;19929;-40
2023/08/30 11:34:56;;;;;;;;;;;16.00;99.90;;;;;;5071476;28;20369;-40
2023/08/30 11:37:22;;;;;;;;;;;15.90;99.90;;;;;;5068715;28;20440;-40
2023/08/30 11:39:52;;;;;;;;;;;15.90;99.90;;;;;;5072086;28;20335;-40
2023/08/30 11:42:19;;;;;;;;;;;15.80;99.90;;;;;;5070835;28;19934;-40
2023/08/30 11:44:45;;;;;;;;;;;15.80;99.90;;;;;;5069367;28;19929;-41
2023/08/30 11:47:13;;;;;;;;;;;15.80;99.90;;;;;;5072096;28;19925;-39
2023/08/30 11:49:41;;;;;;;;;;;15.70;99.90;;;;;;5069993;28;20008;-40
2023/08/30 11:52:07;;;;;;;;;;;15.70;99.90;;;;;;5071692;28;19924;-41
2023/08/30 11:54:34;;;;;;;;;;;15.70;99.90;;;;;;5071870;28;20370;-41
2023/08/30 11:57:01;;;;;;;;;;;15.70;99.90;;;;;;5071438;28;19978;-40
2023/08/30 11:59:31;;;;;;;;;;;15.80;99.90;;;;;;5070843;28;19978;-41
2023/08/30 12:01:58;;;;;;;;;;;15.80;99.90;;;;;;5071574;28;19933;-40
2023/08/30 12:04:26;;;;;;;;;;;15.80;99.90;;;;;;5070075;28;19925;-41
2023/08/30 12:06:53;;;;;;;;;;;15.80;99.90;;;;;;5071853;28;19931;-41
2023/08/30 12:09:21;;;;;;;;;;;15.90;99.90;;;;;;5071347;28;19981;-40
2023/08/30 12:11:48;;;;;;;;;;;15.90;99.90;;;;;;5070807;28;19924;-40
2023/08/30 12:14:15;;;;;;;;;;;15.90;99.90;;;;;;5075443;28;19929;-40
2023/08/30 12:16:41;;;;;;;;;;;15.90;99.90;;;;;;5073852;28;19925;-39
2023/08/30 12:19:08;;;;;;;;;;;16.00;99.90;;;;;;5074691;28;20338;-40
2023/08/30 12:21:41;;;;;;;;;;;16.00;99.90;;;;;;5075343;28;19931;-40
2023/08/30 12:24:09;;;;;;;;;;;16.00;99.90;;;;;;5073897;28;20354;-41
2023/08/30 12:26:38;;;;;;;;;;;16.10;99.90;;;;;;5075120;28;19931;-40
2023/08/30 12:29:05;;;;;;;;;;;16.00;99.90;;;;;;5075369;28;20284;-40
2023/08/30 12:31:32;;;;;;;;;;;16.00;99.90;;;;;;5074946;28;19924;-40
2023/08/30 12:33:58;;;;;;;;;;;16.00;99.90;;;;;;5075135;28;19978;-40
2023/08/30 12:36:25;;;;;;;;;;;16.00;99.90;;;;;;5074168;28;19924;-40
2023/08/30 12:38:53;;;;;;;;;;;16.00;99.90;;;;;;5074685;28;19924;-40
2023/08/30 12:41:22;;;;;;;;;;;16.00;99.90;;;;;;5071325;28;19925;-40
2023/08/30 12:43:49;;;;;;;;;;;16.00;99.90;;;;;;5071173;28;20387;-40
2023/08/30 12:46:16;;;;;;;;;;;16.10;99.90;;;;;;5071663;28;19932;-40
2023/08/30 12:48:43;;;;;;;;;;;16.20;99.90;;;;;;5073577;28;19929;-40
2023/08/30 12:51:10;;;;;;;;;;;16.20;99.90;;;;;;5073482;28;19925;-40
2023/08/30 12:53:36;;;;;;;;;;;16.30;99.90;;;;;;5072974;28;19994;-40
2023/08/30 12:56:05;;;;;;;;;;;16.30;99.90;;;;;;5070237;28;19929;-40
2023/08/30 12:58:31;;;;;;;;;;;16.30;99.90;;;;;;5067864;28;19998;-40
2023/08/30 13:00:58;;;;;;;;;;;16.30;99.90;;;;;;5071429;28;19993;-40
2023/08/30 13:03:25;;;;;;;;;;;16.30;99.90;;;;;;5075030;28;20316;-39
2023/08/30 13:05:51;;;;;;;;;;;16.30;99.90;;;;;;5073010;28;19932;-40
2023/08/30 13:08:18;;;;;;;;;;;16.30;99.90;;;;;;5069077;28;19925;-40
2023/08/30 13:10:45;;;;;;;;;;;16.30;99.90;;;;;;5072202;28;20284;-40
2023/08/30 13:13:13;;;;;;;;;;;16.30;99.90;;;;;;5073187;28;20292;-40
2023/08/30 13:15:40;;;;;;;;;;;16.30;99.90;;;;;;5072906;28;19948;-40
2023/08/30 13:18:06;;;;;;;;;;;16.30;99.90;;;;;;5072492;28;19924;-41
2023/08/30 13:20:33;;;;;;;;;;;16.30;99.90;;;;;;5074507;28;20342;-40
2023/08/30 13:23:00;;;;;;;;;;;16.30;99.90;;;;;;5071964;28;20427;-40
2023/08/30 13:25:26;;;;;;;;;;;16.30;99.90;;;;;;5071719;28;19925;-40
2023/08/30 13:27:53;;;;;;;;;;;16.30;99.90;;;;;;5072551;28;19932;-40
2023/08/30 13:30:21;;;;;;;;;;;16.30;99.90;;;;;;5073870;28;20304;-40
2023/08/30 13:32:48;;;;;;;;;;;16.30;99.90;;;;;;5071535;28;19929;-40
2023/08/30 13:35:15;;;;;;;;;;;16.30;99.90;;;;;;5066365;28;19928;-40
2023/08/30 13:37:41;;;;;;;;;;;16.30;99.90;;;;;;5071759;28;19931;-39
2023/08/30 13:40:10;;;;;;;;;;;16.30;99.90;;;;;;5067197;28;20526;-41
2023/08/30 13:42:38;;;;;;;;;;;16.30;99.90;;;;;;5071339;28;19924;-41
2023/08/30 13:45:06;;;;;;;;;;;16.30;99.90;;;;;;5072560;28;19978;-41
2023/08/30 13:47:34;;;;;;;;;;;16.30;99.90;;;;;;5072320;28;20288;-41
2023/08/30 13:50:01;;;;;;;;;;;16.30;99.90;;;;;;5072411;28;20323;-41
2023/08/30 13:52:29;;;;;;;;;;;16.30;99.90;;;;;;5071710;28;20502;-40
2023/08/30 13:54:55;;;;;;;;;;;16.30;99.90;;;;;;5071789;28;20359;-40
2023/08/30 13:57:22;;;;;;;;;;;16.30;99.90;;;;;;5056186;28;19939;-41
2023/08/30 13:59:49;;;;;;;;;;;16.30;99.90;;;;;;5053644;28;20320;-41
2023/08/30 14:02:16;;;;;;;;;;;16.30;99.90;;;;;;5071586;28;20028;-41
2023/08/30 14:04:44;;;;;;;;;;;16.30;99.90;;;;;;5071123;28;20308;-41
2023/08/30 14:07:11;;;;;;;;;;;16.40;99.90;;;;;;5071389;28;19986;-41
2023/08/30 14:09:38;;;;;;;;;;;16.40;99.90;;;;;;5072226;28;19924;-40
2023/08/30 14:12:05;;;;;;;;;;;16.40;99.90;;;;;;5066802;28;19975;-41
2023/08/30 14:14:32;;;;;;;;;;;16.50;99.90;;;;;;5068554;28;19924;-40
2023/08/30 14:16:58;;;;;;;;;;;16.50;99.90;;;;;;5069171;28;19970;-40